Terminal Aerodrome Forecast
Issued by NWS

Home | Current Version | Previous Version | Text Only | Print | Product List | Glossary On
Versions: 1 2 3 4 5 6 7 8 9 10 11 12 13
000
FTUS44 KMAF 312320
TAFFST
TAF
KFST 312320Z 0100/0124 14017G27KT P6SM SCT050 BKN250
      TEMPO 0100/0102 VRB15G25KT 6SM TSRA BKN045CB
     FM010200 15011KT P6SM SCT045 OVC200
      TEMPO 0102/0106 VRB15G25KT 6SM TSRA BKN040CB
     FM011300 10009KT P6SM OVC035
     FM011600 04006KT P6SM SCT035 OVC040
      AMD NOT SKED=

USA.gov is the U.S. government's official web portal to all federal, state and local government web resources and services.